Pagina principale
METAR-TAF:

METAR-TAF

Aeroporti :

Arar, Arabia Saudita

latitudine: 30-54N, longitudine: 041-08E, altezza: 555 m

Osservazione

Il bollettino è stato emesso 51 minuti fa, alle 12:00 UTC
Vento 9 kt da ovest
Temperature 45°C
Umidità 8%
Pressione 1007 hPa
Visibilità 10 km o più
nessuna nube inferiore a 1500 m e nessun cumulonembo

METAR: OERR 261200Z 28009KT CAVOK 45/03 Q1007 NOSIG

Ora: 15:51 (12:51 UTC)

Previsione

Il bollettino è stato emesso 1 ora e 51 minuti fa, alle 11:00 UTC
Previsione valida dal 26 alle 12 UTC al 27 alle 18 UTC
Vento 15 kt da ovest
Visibilità 10 km o più
nessuna nube inferiore a 1500 m e nessun cumulonembo
Evoluzione graduale
dal 26 alle 20 UTC al 26 alle 22 UTC
Vento 3 kt da direzioni variabili

TAF: OERR 261100Z 2612/2718 26015KT CAVOK BECMG 2620/2622 VRB03KT

Osservazioni e previsioni meteorologiche di più di 4000 aeroporti (messaggi METAR e TAF).

Le stazioni disponibili sono rappresentate dai dischi gialli e rossi sulla carta.

Puntare il mouse per vedere il nome della stazione.

Clicca sopra per visualizzare le osservazioni e previsioni meteorologiche.

Per cambiare la mappa : fare clic sui pulsanti verdi con una croce nera per ingrandire, il pulsante verde con un trattino per diminuire, o sulla freccia verde per le mappe adiacenti.


METAR-TAF: